Beaver Dam, Wisconsin
Current Conditions -  °F | °C
As of 4:55 PM on Thursday 27 Nov 2014 (Local Time) from KUNU Reporting Station
Clear Clear  
Wind Chill: 12°   Ceiling: Unl
Heat Index: 12°   Visibility: 10mi
Dew Point:   Wind: 0mph
Humidity: 80%   Direction: NA
Pressure: 30.39"   Gusts: NA
Location:  43.46°N, 88.83°W
Report Text: KUNU 272255Z AUTO 00000KT 10SM CLR M11/M14 A3039 RMK AO2 T11101139
Loading
Personal Weather Stations






























Interactive Weather Map New forecast layout! Learn more

10-Day Weather Forecast

Advertisements
Track Severe Weather on mobile